Time;durP1;ratioP1;P1;durP2;ratioP2;P2;SDS_P1;SDS_P2;PMS_P1;PMS_P2;Temp;Humidity;BMP_temperature;BMP_pressure;BME280_temperature;BME280_humidity;BME280_pressure;Samples;Min_cycle;Max_cycle;Signal;HPM_P1;HPM_P2
2023/09/07 00:00:46;;;;;;;;;;;;;;;25.70;nan;102498.50;5013909;28;20507;-83
2023/09/07 00:03:12;;;;;;;;;;;;;;;25.65;nan;102501.28;5017770;28;20012;-83
2023/09/07 00:05:38;;;;;;;;;;;;;;;25.58;nan;102499.78;5016439;28;19924;-84
2023/09/07 00:08:03;;;;;;;;;;;;;;;25.54;nan;102493.31;5014116;28;19977;-82
2023/09/07 00:10:28;;;;;;;;;;;;;;;25.50;nan;102492.28;5019619;28;19920;-82
2023/09/07 00:12:54;;;;;;;;;;;;;;;25.39;nan;102496.34;5014795;28;19921;-83
2023/09/07 00:15:21;;;;;;;;;;;;;;;25.32;nan;102501.47;5021190;28;19932;-83
2023/09/07 00:17:46;;;;;;;;;;;;;;;25.25;nan;102503.78;5020478;28;19944;-82
2023/09/07 00:20:13;;;;;;;;;;;;;;;25.21;nan;102505.50;5028559;28;19972;-82
2023/09/07 00:22:39;;;;;;;;;;;;;;;25.17;nan;102497.09;5019463;28;19922;-82
2023/09/07 00:25:06;;;;;;;;;;;;;;;25.13;nan;102503.47;5016773;28;19931;-82
2023/09/07 00:27:31;;;;;;;;;;;;;;;25.09;nan;102510.69;5017297;28;19921;-83
2023/09/07 00:29:57;;;;;;;;;;;;;;;25.06;nan;102511.28;5016211;28;20351;-82
2023/09/07 00:32:22;;;;;;;;;;;;;;;24.99;nan;102507.03;5013239;28;19966;-82
2023/09/07 00:34:47;;;;;;;;;;;;;;;24.94;nan;102503.53;5019613;28;20125;-83
2023/09/07 00:37:13;;;;;;;;;;;;;;;24.89;nan;102500.88;5015515;28;19945;-82
2023/09/07 00:39:38;;;;;;;;;;;;;;;24.83;nan;102502.09;5016982;28;20004;-82
2023/09/07 00:42:03;;;;;;;;;;;;;;;24.76;nan;102502.47;5016872;28;19949;-82
2023/09/07 00:44:29;;;;;;;;;;;;;;;24.70;nan;102498.22;5016489;28;19921;-82
2023/09/07 00:46:56;;;;;;;;;;;;;;;24.64;nan;102499.44;5017284;28;19932;-82
2023/09/07 00:49:22;;;;;;;;;;;;;;;24.58;nan;102495.13;5017423;28;19918;-82
2023/09/07 00:51:47;;;;;;;;;;;;;;;24.55;nan;102493.81;5017814;28;19917;-82
2023/09/07 00:54:12;;;;;;;;;;;;;;;24.50;nan;102493.91;5019004;28;19917;-82
2023/09/07 00:56:38;;;;;;;;;;;;;;;24.47;nan;102502.72;5019784;28;19917;-82
2023/09/07 00:59:03;;;;;;;;;;;;;;;24.45;nan;102504.97;5017133;28;19928;-82
2023/09/07 01:01:30;;;;;;;;;;;;;;;24.39;nan;102504.19;5014879;28;20288;-82
2023/09/07 01:03:57;;;;;;;;;;;;;;;24.37;nan;102505.63;5018724;28;19921;-82
2023/09/07 01:06:35;;;;;;;;;;;;;;;24.35;nan;102507.84;5015030;28;19976;-82
2023/09/07 01:09:07;;;;;;;;;;;;;;;24.28;nan;102507.41;5014801;28;19928;-82
2023/09/07 01:11:37;;;;;;;;;;;;;;;24.24;nan;102501.72;5015733;28;19932;-82
2023/09/07 01:14:03;;;;;;;;;;;;;;;24.19;nan;102499.03;5018734;28;21435;-82
2023/09/07 01:16:29;;;;;;;;;;;;;;;24.17;nan;102503.19;5015332;28;19929;-82
2023/09/07 01:18:55;;;;;;;;;;;;;;;24.14;nan;102512.81;5016786;28;19923;-83
2023/09/07 01:21:21;;;;;;;;;;;;;;;24.13;nan;102504.88;5015650;28;19917;-82
2023/09/07 01:23:47;;;;;;;;;;;;;;;24.09;nan;102505.50;5017535;28;20014;-82
2023/09/07 01:26:13;;;;;;;;;;;;;;;24.05;nan;102498.13;5015883;28;20381;-82
2023/09/07 01:28:38;;;;;;;;;;;;;;;24.01;nan;102505.31;5016774;28;19924;-83
2023/09/07 01:31:04;;;;;;;;;;;;;;;23.98;nan;102508.66;5013995;28;19921;-83
2023/09/07 01:33:29;;;;;;;;;;;;;;;23.94;nan;102513.09;5016587;28;20440;-82
2023/09/07 01:35:55;;;;;;;;;;;;;;;23.89;nan;102516.75;5016410;28;19960;-82
2023/09/07 01:38:20;;;;;;;;;;;;;;;23.87;nan;102513.44;5012226;28;20305;-83
2023/09/07 01:40:46;;;;;;;;;;;;;;;23.86;nan;102511.81;5019137;28;19925;-82
2023/09/07 01:43:11;;;;;;;;;;;;;;;23.81;nan;102507.25;5016908;28;19917;-82
2023/09/07 01:45:36;;;;;;;;;;;;;;;23.77;nan;102508.13;5015773;28;19947;-82
2023/09/07 01:48:03;;;;;;;;;;;;;;;23.73;nan;102512.59;5017242;28;19940;-83
2023/09/07 01:50:28;;;;;;;;;;;;;;;23.68;nan;102510.69;5016493;28;19983;-82
2023/09/07 01:52:53;;;;;;;;;;;;;;;23.63;nan;102502.56;5015701;28;20463;-83
2023/09/07 01:55:19;;;;;;;;;;;;;;;23.60;nan;102505.09;5017000;28;20309;-83
2023/09/07 01:57:44;;;;;;;;;;;;;;;23.56;nan;102513.03;5015757;28;19925;-82
2023/09/07 02:00:10;;;;;;;;;;;;;;;23.52;nan;102503.81;5018424;28;19927;-82
2023/09/07 02:02:36;;;;;;;;;;;;;;;23.46;nan;102503.03;5015559;28;19972;-82
2023/09/07 02:05:01;;;;;;;;;;;;;;;23.42;nan;102509.38;5011793;28;19928;-82
2023/09/07 02:07:26;;;;;;;;;;;;;;;23.38;nan;102503.69;5015841;28;19986;-82
2023/09/07 02:09:52;;;;;;;;;;;;;;;23.34;nan;102504.53;5015028;28;19917;-82
2023/09/07 02:12:17;;;;;;;;;;;;;;;23.33;nan;102508.38;5015208;28;19921;-82
2023/09/07 02:14:43;;;;;;;;;;;;;;;23.33;nan;102508.38;5015959;28;19921;-82
2023/09/07 02:17:08;;;;;;;;;;;;;;;23.29;nan;102501.88;5014674;28;20352;-82
2023/09/07 02:19:33;;;;;;;;;;;;;;;23.29;nan;102504.59;5019986;28;19924;-82
2023/09/07 02:21:59;;;;;;;;;;;;;;;23.28;nan;102505.72;5028160;28;19947;-82
2023/09/07 02:24:24;;;;;;;;;;;;;;;23.27;nan;102498.63;5017779;28;20455;-82
2023/09/07 02:26:50;;;;;;;;;;;;;;;23.25;nan;102500.84;5016599;28;20309;-82
2023/09/07 02:29:15;;;;;;;;;;;;;;;23.25;nan;102496.19;5016780;28;20191;-83
2023/09/07 02:31:41;;;;;;;;;;;;;;;23.26;nan;102502.47;5017532;28;20501;-83
2023/09/07 02:34:06;;;;;;;;;;;;;;;23.23;nan;102497.56;5011953;28;19924;-82
2023/09/07 02:36:33;;;;;;;;;;;;;;;23.20;nan;102497.06;5019688;28;20242;-83
2023/09/07 02:38:58;;;;;;;;;;;;;;;23.21;nan;102497.88;5022660;28;20227;-82
2023/09/07 02:41:23;;;;;;;;;;;;;;;23.20;nan;102498.97;5023188;28;19917;-82
2023/09/07 02:43:49;;;;;;;;;;;;;;;23.19;nan;102497.34;5020284;28;19925;-82
2023/09/07 02:46:14;;;;;;;;;;;;;;;23.17;nan;102499.56;5019289;28;19921;-82
2023/09/07 02:48:39;;;;;;;;;;;;;;;23.15;nan;102502.56;5022440;28;19925;-82
2023/09/07 02:51:05;;;;;;;;;;;;;;;23.13;nan;102509.44;5017430;28;20396;-83
2023/09/07 02:53:30;;;;;;;;;;;;;;;23.08;nan;102517.69;5018091;28;20485;-82
2023/09/07 02:55:55;;;;;;;;;;;;;;;23.03;nan;102506.81;5020596;28;20304;-84
2023/09/07 02:58:22;;;;;;;;;;;;;;;22.98;nan;102504.97;5019135;28;19925;-84
2023/09/07 03:00:48;;;;;;;;;;;;;;;22.95;nan;102510.16;5012175;28;19925;-84
2023/09/07 03:03:13;;;;;;;;;;;;;;;22.85;nan;102500.19;5016967;28;19925;-83
2023/09/07 03:05:39;;;;;;;;;;;;;;;22.77;nan;102506.22;5018854;28;20351;-83
2023/09/07 03:08:06;;;;;;;;;;;;;;;22.72;nan;102512.56;5020114;28;20548;-83
2023/09/07 03:10:31;;;;;;;;;;;;;;;22.70;nan;102508.47;5021861;28;19932;-84
2023/09/07 03:12:57;;;;;;;;;;;;;;;22.66;nan;102519.19;5018489;28;19913;-84
2023/09/07 03:15:22;;;;;;;;;;;;;;;22.65;nan;102511.25;5020623;28;19932;-83
2023/09/07 03:17:47;;;;;;;;;;;;;;;22.64;nan;102510.44;5021673;28;19924;-84
2023/09/07 03:20:16;;;;;;;;;;;;;;;22.67;nan;102506.31;5017032;28;19925;-83
2023/09/07 03:22:42;;;;;;;;;;;;;;;22.64;nan;102517.84;5021065;28;19917;-82
2023/09/07 03:25:08;;;;;;;;;;;;;;;22.60;nan;102512.09;5019188;28;19917;-83
2023/09/07 03:27:33;;;;;;;;;;;;;;;22.56;nan;102508.31;5015957;28;20332;-83
2023/09/07 03:29:58;;;;;;;;;;;;;;;22.51;nan;102517.38;5017842;28;20351;-82
2023/09/07 03:32:26;;;;;;;;;;;;;;;22.46;nan;102509.25;5018058;28;20035;-82
2023/09/07 03:34:52;;;;;;;;;;;;;;;22.36;nan;102511.22;5015801;28;19921;-82
2023/09/07 03:37:17;;;;;;;;;;;;;;;22.31;nan;102509.34;5018681;28;20393;-83
2023/09/07 03:39:42;;;;;;;;;;;;;;;22.27;nan;102509.13;5017434;28;20004;-83
2023/09/07 03:42:08;;;;;;;;;;;;;;;22.27;nan;102497.38;5014520;28;21286;-83
2023/09/07 03:44:33;;;;;;;;;;;;;;;22.25;nan;102507.75;5019000;28;20012;-82
2023/09/07 03:47:00;;;;;;;;;;;;;;;22.25;nan;102507.75;5019839;28;19929;-82
2023/09/07 03:49:25;;;;;;;;;;;;;;;22.20;nan;102505.06;5019209;28;19921;-83
2023/09/07 03:51:50;;;;;;;;;;;;;;;22.18;nan;102504.53;5021537;28;19944;-82
2023/09/07 03:54:16;;;;;;;;;;;;;;;22.20;nan;102511.31;5020481;28;19934;-82
2023/09/07 03:56:41;;;;;;;;;;;;;;;22.22;nan;102505.59;5022224;28;19917;-82
2023/09/07 03:59:06;;;;;;;;;;;;;;;22.23;nan;102512.66;5018332;28;19976;-82
2023/09/07 04:01:32;;;;;;;;;;;;;;;22.21;nan;102512.13;5015638;28;19927;-84
2023/09/07 04:03:58;;;;;;;;;;;;;;;22.19;nan;102519.81;5016256;28;19958;-82
2023/09/07 04:06:24;;;;;;;;;;;;;;;22.19;nan;102514.34;5015534;28;19922;-82
2023/09/07 04:08:49;;;;;;;;;;;;;;;22.19;nan;102520.63;5018571;28;20008;-82
2023/09/07 04:11:14;;;;;;;;;;;;;;;22.18;nan;102520.91;5018179;28;19925;-82
2023/09/07 04:13:40;;;;;;;;;;;;;;;22.18;nan;102523.63;5020290;28;20393;-82
2023/09/07 04:16:05;;;;;;;;;;;;;;;22.17;nan;102528.28;5016402;28;19928;-82
2023/09/07 04:18:30;;;;;;;;;;;;;;;22.16;nan;102526.66;5019538;28;19930;-82
2023/09/07 04:21:06;;;;;;;;;;;;;;;22.15;nan;102529.66;5017146;28;19932;-84
2023/09/07 04:23:31;;;;;;;;;;;;;;;22.14;nan;102519.84;5017541;28;20396;-83
2023/09/07 04:26:07;;;;;;;;;;;;;;;22.13;nan;102526.41;5017370;28;20305;-82
2023/09/07 04:28:32;;;;;;;;;;;;;;;22.06;nan;102523.97;5016758;28;19924;-82
2023/09/07 04:30:57;;;;;;;;;;;;;;;22.02;nan;102529.16;5017272;28;19917;-82
2023/09/07 04:33:23;;;;;;;;;;;;;;;21.95;nan;102525.13;5012990;28;19963;-83
2023/09/07 04:35:48;;;;;;;;;;;;;;;21.89;nan;102528.94;5014169;28;19921;-82
2023/09/07 04:38:13;;;;;;;;;;;;;;;21.85;nan;102539.63;5016688;28;19932;-82
2023/09/07 04:40:39;;;;;;;;;;;;;;;21.82;nan;102534.72;5020017;28;19937;-82
2023/09/07 04:43:04;;;;;;;;;;;;;;;21.82;nan;102537.44;5016263;28;19937;-83
2023/09/07 04:45:29;;;;;;;;;;;;;;;21.82;nan;102539.38;5017978;28;19928;-83
2023/09/07 04:47:55;;;;;;;;;;;;;;;21.80;nan;102539.66;5019567;28;19921;-83
2023/09/07 04:50:20;;;;;;;;;;;;;;;21.78;nan;102546.50;5018887;28;19957;-83
2023/09/07 04:52:45;;;;;;;;;;;;;;;21.77;nan;102544.84;5019365;28;20249;-83
2023/09/07 04:55:11;;;;;;;;;;;;;;;21.78;nan;102544.56;5017439;28;19976;-83
2023/09/07 04:57:37;;;;;;;;;;;;;;;21.79;nan;102556.31;5015513;28;19917;-83
2023/09/07 05:00:03;;;;;;;;;;;;;;;21.81;nan;102554.94;5018186;28;20529;-82
2023/09/07 05:02:29;;;;;;;;;;;;;;;21.85;nan;102549.72;5013218;28;19986;-82
2023/09/07 05:04:54;;;;;;;;;;;;;;;21.87;nan;102552.97;5012658;28;19933;-83
2023/09/07 05:07:19;;;;;;;;;;;;;;;21.89;nan;102554.31;5016411;28;19933;-83
2023/09/07 05:09:45;;;;;;;;;;;;;;;21.92;nan;102553.78;5015021;28;19928;-82
2023/09/07 05:12:10;;;;;;;;;;;;;;;21.98;nan;102555.38;5017409;28;19928;-83
2023/09/07 05:14:36;;;;;;;;;;;;;;;22.05;nan;102549.63;5016629;28;20043;-82
2023/09/07 05:17:01;;;;;;;;;;;;;;;22.10;nan;102549.63;5017665;28;19921;-82
2023/09/07 05:19:27;;;;;;;;;;;;;;;22.17;nan;102557.50;5015183;28;19925;-82
2023/09/07 05:21:52;;;;;;;;;;;;;;;22.22;nan;102558.28;5019389;28;19920;-84
2023/09/07 05:24:17;;;;;;;;;;;;;;;22.28;nan;102559.06;5015203;28;19925;-84
2023/09/07 05:26:43;;;;;;;;;;;;;;;22.35;nan;102562.28;5018402;28;20055;-84
2023/09/07 05:29:09;;;;;;;;;;;;;;;22.42;nan;102557.31;5011073;28;20293;-83
2023/09/07 05:31:34;;;;;;;;;;;;;;;22.50;nan;102556.72;5014281;28;19970;-84
2023/09/07 05:34:00;;;;;;;;;;;;;;;22.59;nan;102568.66;5009966;28;19933;-83
2023/09/07 05:36:27;;;;;;;;;;;;;;;22.71;nan;102564.75;5010057;28;20021;-84
2023/09/07 05:38:52;;;;;;;;;;;;;;;22.82;nan;102560.88;5013917;28;19920;-84
2023/09/07 05:41:17;;;;;;;;;;;;;;;22.91;nan;102559.13;5013324;28;19959;-85
2023/09/07 05:43:43;;;;;;;;;;;;;;;23.00;nan;102562.91;5010710;28;19962;-84
2023/09/07 05:46:10;;;;;;;;;;;;;;;23.11;nan;102564.41;5018850;28;21453;-84
2023/09/07 05:48:35;;;;;;;;;;;;;;;23.20;nan;102570.88;5019802;28;20020;-83
2023/09/07 05:51:01;;;;;;;;;;;;;;;23.30;nan;102567.22;5019560;28;19964;-84
2023/09/07 05:53:26;;;;;;;;;;;;;;;23.41;nan;102573.41;5019286;28;19924;-85
2023/09/07 05:55:52;;;;;;;;;;;;;;;23.51;nan;102570.53;5013961;28;19917;-83
2023/09/07 05:58:17;;;;;;;;;;;;;;;23.62;nan;102572.09;5008217;28;19921;-84
2023/09/07 06:00:43;;;;;;;;;;;;;;;23.74;nan;102575.22;5017914;28;20023;-84
2023/09/07 06:03:09;;;;;;;;;;;;;;;23.88;nan;102579.97;5012610;28;20596;-84
2023/09/07 06:05:35;;;;;;;;;;;;;;;23.99;nan;102579.53;5015066;28;20175;-84
2023/09/07 06:08:01;;;;;;;;;;;;;;;24.09;nan;102586.81;5009586;28;19925;-83
2023/09/07 06:10:27;;;;;;;;;;;;;;;24.20;nan;102584.75;5012696;28;19935;-84
2023/09/07 06:12:53;;;;;;;;;;;;;;;24.31;nan;102584.34;5015616;28;19921;-85
2023/09/07 06:15:18;;;;;;;;;;;;;;;24.42;nan;102590.50;5018427;28;20199;-84
2023/09/07 06:17:45;;;;;;;;;;;;;;;24.53;nan;102580.97;5012996;28;19940;-84
2023/09/07 06:20:11;;;;;;;;;;;;;;;24.66;nan;102587.63;5013309;28;19940;-84
2023/09/07 06:22:36;;;;;;;;;;;;;;;24.79;nan;102586.88;5014423;28;19922;-84
2023/09/07 06:25:01;;;;;;;;;;;;;;;24.91;nan;102589.94;5012369;28;19986;-84
2023/09/07 06:27:27;;;;;;;;;;;;;;;25.06;nan;102588.09;5012017;28;19983;-85
2023/09/07 06:29:52;;;;;;;;;;;;;;;25.18;nan;102585.69;5014021;28;20393;-83
2023/09/07 06:32:18;;;;;;;;;;;;;;;25.31;nan;102593.09;5007059;28;19925;-85
2023/09/07 06:34:44;;;;;;;;;;;;;;;25.45;nan;102590.34;5010070;28;20365;-83
2023/09/07 06:37:09;;;;;;;;;;;;;;;25.57;nan;102593.41;5014787;28;19921;-84
2023/09/07 06:39:34;;;;;;;;;;;;;;;25.69;nan;102595.69;5018348;28;19925;-84
2023/09/07 06:42:00;;;;;;;;;;;;;;;25.81;nan;102591.28;5014272;28;20297;-84
2023/09/07 06:44:25;;;;;;;;;;;;;;;25.94;nan;102595.16;5016984;28;19925;-84
2023/09/07 06:46:50;;;;;;;;;;;;;;;26.08;nan;102590.44;5017574;28;19922;-84
2023/09/07 06:49:16;;;;;;;;;;;;;;;26.23;nan;102594.78;5016984;28;19918;-83
2023/09/07 06:51:41;;;;;;;;;;;;;;;26.38;nan;102597.19;5016773;28;20060;-85
2023/09/07 06:54:06;;;;;;;;;;;;;;;26.52;nan;102602.63;5016206;28;19917;-84
2023/09/07 06:56:34;;;;;;;;;;;;;;;26.67;nan;102594.03;5018839;28;19921;-85
2023/09/07 06:59:00;;;;;;;;;;;;;;;26.82;nan;102601.09;5011937;28;20403;-84
2023/09/07 07:01:25;;;;;;;;;;;;;;;26.98;nan;102604.25;5014855;28;19925;-84
2023/09/07 07:03:50;;;;;;;;;;;;;;;27.12;nan;102594.03;5008006;28;20221;-85
2023/09/07 07:06:16;;;;;;;;;;;;;;;27.28;nan;102592.44;5016418;28;20381;-85
2023/09/07 07:08:41;;;;;;;;;;;;;;;27.42;nan;102591.53;5014416;28;20040;-84
2023/09/07 07:11:07;;;;;;;;;;;;;;;27.58;nan;102584.47;5011151;28;20479;-84
2023/09/07 07:13:33;;;;;;;;;;;;;;;27.70;nan;102598.47;5014521;28;20056;-84
2023/09/07 07:15:58;;;;;;;;;;;;;;;27.85;nan;102594.47;5016116;28;20354;-83
2023/09/07 07:18:23;;;;;;;;;;;;;;;28.00;nan;102597.56;5015861;28;19928;-83
2023/09/07 07:20:50;;;;;;;;;;;;;;;28.16;nan;102597.09;5016627;28;19975;-85
2023/09/07 07:23:16;;;;;;;;;;;;;;;28.30;nan;102603.28;5017689;28;19921;-84
2023/09/07 07:25:41;;;;;;;;;;;;;;;28.44;nan;102590.16;5016772;28;19928;-84
2023/09/07 07:28:07;;;;;;;;;;;;;;;28.61;nan;102600.38;5018989;28;19980;-84
2023/09/07 07:30:33;;;;;;;;;;;;;;;28.75;nan;102594.69;5016901;28;20406;-84
2023/09/07 07:32:58;;;;;;;;;;;;;;;28.93;nan;102596.28;5013139;28;19925;-84
2023/09/07 07:35:23;;;;;;;;;;;;;;;29.06;nan;102600.78;5017505;28;20385;-84
2023/09/07 07:37:49;;;;;;;;;;;;;;;29.17;nan;102591.00;5016602;28;19936;-85
2023/09/07 07:40:15;;;;;;;;;;;;;;;29.34;nan;102592.09;5017149;28;19925;-83
2023/09/07 07:42:40;;;;;;;;;;;;;;;29.48;nan;102598.22;5016954;28;20175;-83
2023/09/07 07:45:06;;;;;;;;;;;;;;;29.67;nan;102590.31;5018753;28;19928;-83
2023/09/07 07:47:31;;;;;;;;;;;;;;;29.81;nan;102600.31;5016613;28;19928;-83
2023/09/07 07:49:57;;;;;;;;;;;;;;;29.91;nan;102599.91;5019818;28;20320;-83
2023/09/07 07:52:22;;;;;;;;;;;;;;;30.05;nan;102598.56;5018955;28;20345;-83
2023/09/07 07:54:47;;;;;;;;;;;;;;;30.23;nan;102599.22;5018683;28;19969;-83
2023/09/07 07:57:12;;;;;;;;;;;;;;;30.40;nan;102591.94;5019288;28;19974;-83
2023/09/07 07:59:38;;;;;;;;;;;;;;;30.56;nan;102595.69;5018776;28;19931;-83
2023/09/07 08:02:05;;;;;;;;;;;;;;;30.73;nan;102603.84;5021629;28;19924;-83
2023/09/07 08:04:32;;;;;;;;;;;;;;;30.91;nan;102607.25;5013323;28;19934;-83
2023/09/07 08:07:03;;;;;;;;;;;;;;;31.09;nan;102605.09;5018363;28;19929;-84
2023/09/07 08:09:28;;;;;;;;;;;;;;;31.25;nan;102593.03;5016251;28;19979;-83
2023/09/07 08:11:55;;;;;;;;;;;;;;;31.40;nan;102608.13;5022331;28;20301;-83
2023/09/07 08:14:22;;;;;;;;;;;;;;;31.55;nan;102606.63;5018157;28;20059;-82
2023/09/07 08:16:47;;;;;;;;;;;;;;;31.68;nan;102601.91;5016349;28;19957;-83
2023/09/07 08:19:13;;;;;;;;;;;;;;;31.76;nan;102603.75;5019677;28;20397;-83
2023/09/07 08:21:38;;;;;;;;;;;;;;;31.89;nan;102593.47;5019200;28;19935;-83
2023/09/07 08:24:03;;;;;;;;;;;;;;;31.99;nan;102595.78;5017880;28;19925;-83
2023/09/07 08:26:29;;;;;;;;;;;;;;;32.08;nan;102594.47;5019309;28;20022;-83
2023/09/07 08:28:54;;;;;;;;;;;;;;;32.19;nan;102593.97;5015422;28;19925;-83
2023/09/07 08:31:22;;;;;;;;;;;;;;;32.31;nan;102591.19;5017997;28;19932;-84
2023/09/07 08:33:50;;;;;;;;;;;;;;;32.45;nan;102591.59;5017147;28;21263;-83
2023/09/07 08:36:17;;;;;;;;;;;;;;;32.58;nan;102603.44;5019459;28;19948;-82
2023/09/07 08:38:42;;;;;;;;;;;;;;;32.72;nan;102589.97;5019163;28;20463;-83
2023/09/07 08:41:08;;;;;;;;;;;;;;;32.88;nan;102592.78;5023521;28;20017;-84
2023/09/07 08:43:35;;;;;;;;;;;;;;;33.01;nan;102594.31;5018605;28;20061;-84
2023/09/07 08:46:07;;;;;;;;;;;;;;;33.17;nan;102594.31;5016620;28;19921;-84
2023/09/07 08:48:32;;;;;;;;;;;;;;;33.25;nan;102598.91;5016352;28;19925;-83
2023/09/07 08:50:57;;;;;;;;;;;;;;;33.36;nan;102591.66;5015880;28;19932;-84
2023/09/07 08:53:23;;;;;;;;;;;;;;;33.50;nan;102592.00;5020636;28;19936;-83
2023/09/07 08:55:48;;;;;;;;;;;;;;;33.67;nan;102590.78;5018475;28;20075;-84
2023/09/07 08:58:14;;;;;;;;;;;;;;;33.81;nan;102593.91;5020105;28;19927;-83
2023/09/07 09:00:43;;;;;;;;;;;;;;;33.97;nan;102591.09;5017589;28;19925;-84
2023/09/07 09:03:08;;;;;;;;;;;;;;;34.14;nan;102587.09;5033449;28;19925;-84
2023/09/07 09:05:34;;;;;;;;;;;;;;;34.30;nan;102590.59;5016361;28;20297;-84
2023/09/07 09:08:04;;;;;;;;;;;;;;;34.43;nan;102589.28;5018913;28;20180;-84
2023/09/07 09:10:29;;;;;;;;;;;;;;;34.59;nan;102591.19;5016546;28;19921;-82
2023/09/07 09:12:55;;;;;;;;;;;;;;;34.65;nan;102586.91;5017771;28;20266;-84
2023/09/07 09:15:22;;;;;;;;;;;;;;;34.71;nan;102583.47;5020945;28;19928;-83
2023/09/07 09:17:47;;;;;;;;;;;;;;;34.76;nan;102591.50;5030715;28;19925;-81
2023/09/07 09:20:20;;;;;;;;;;;;;;;34.84;nan;102589.66;5017470;28;19963;-83
2023/09/07 09:22:45;;;;;;;;;;;;;;;34.94;nan;102586.28;5017983;28;19925;-82
2023/09/07 09:25:11;;;;;;;;;;;;;;;35.06;nan;102583.31;5014679;28;19924;-83
2023/09/07 09:27:36;;;;;;;;;;;;;;;35.13;nan;102590.97;5014120;28;19933;-84
2023/09/07 09:30:01;;;;;;;;;;;;;;;35.19;nan;102574.75;5017440;28;19917;-82
2023/09/07 09:32:27;;;;;;;;;;;;;;;35.28;nan;102590.03;5011654;28;20386;-82
2023/09/07 09:34:52;;;;;;;;;;;;;;;35.42;nan;102581.13;5014756;28;19970;-81
2023/09/07 09:37:19;;;;;;;;;;;;;;;35.56;nan;102578.56;5013813;28;19927;-84
2023/09/07 09:39:48;;;;;;;;;;;;;;;35.65;nan;102581.88;5016989;28;20325;-82
2023/09/07 09:42:14;;;;;;;;;;;;;;;35.74;nan;102573.25;5016367;28;19928;-83
2023/09/07 09:44:40;;;;;;;;;;;;;;;35.89;nan;102568.66;5016832;28;19926;-82
2023/09/07 09:47:07;;;;;;;;;;;;;;;36.11;nan;102564.19;5015356;28;19921;-84
2023/09/07 09:49:33;;;;;;;;;;;;;;;36.24;nan;102560.72;5015353;28;19925;-85
2023/09/07 09:51:58;;;;;;;;;;;;;;;36.39;nan;102566.50;5010572;28;20378;-82
2023/09/07 09:54:24;;;;;;;;;;;;;;;36.49;nan;102557.44;5016966;28;20826;-84
2023/09/07 09:56:49;;;;;;;;;;;;;;;36.57;nan;102554.31;5030336;28;20084;-85
2023/09/07 09:59:15;;;;;;;;;;;;;;;36.65;nan;102554.41;5020006;28;19921;-82
2023/09/07 10:01:44;;;;;;;;;;;;;;;36.70;nan;102557.66;5010955;28;19948;-82
2023/09/07 10:04:11;;;;;;;;;;;;;;;36.73;nan;102547.69;5004655;28;19928;-85
2023/09/07 10:06:38;;;;;;;;;;;;;;;36.66;nan;102547.66;5009934;28;19930;-82
2023/09/07 10:09:06;;;;;;;;;;;;;;;36.71;nan;102550.06;5011688;28;20067;-83
2023/09/07 10:11:37;;;;;;;;;;;;;;;36.80;nan;102554.16;5011856;28;19925;-84
2023/09/07 10:14:03;;;;;;;;;;;;;;;36.95;nan;102552.31;5011900;28;19917;-84
2023/09/07 10:16:29;;;;;;;;;;;;;;;37.11;nan;102566.00;5014911;28;19957;-84
2023/09/07 10:18:54;;;;;;;;;;;;;;;37.24;nan;102547.75;5015396;28;20401;-82
2023/09/07 10:21:20;;;;;;;;;;;;;;;37.35;nan;102557.03;5013170;28;19922;-84
2023/09/07 10:23:45;;;;;;;;;;;;;;;37.39;nan;102555.06;5013329;28;19925;-85
2023/09/07 10:26:15;;;;;;;;;;;;;;;37.32;nan;102555.00;5015103;28;19927;-82
2023/09/07 10:28:40;;;;;;;;;;;;;;;37.29;nan;102547.41;5017928;28;19928;-84
2023/09/07 10:31:07;;;;;;;;;;;;;;;37.28;nan;102548.59;5016213;28;20473;-82
2023/09/07 10:33:34;;;;;;;;;;;;;;;37.38;nan;102558.25;5012698;28;20472;-85
2023/09/07 10:35:59;;;;;;;;;;;;;;;37.46;nan;102545.91;5009177;28;20356;-84
2023/09/07 10:38:25;;;;;;;;;;;;;;;37.60;nan;102548.00;5013408;28;19928;-84
2023/09/07 10:40:57;;;;;;;;;;;;;;;37.75;nan;102538.50;5012978;28;19975;-82
2023/09/07 10:43:23;;;;;;;;;;;;;;;37.86;nan;102544.13;5015752;28;19917;-84
2023/09/07 10:45:49;;;;;;;;;;;;;;;37.94;nan;102538.19;5010774;28;19922;-84
2023/09/07 10:48:16;;;;;;;;;;;;;;;38.10;nan;102535.84;5013579;28;19944;-82
2023/09/07 10:50:45;;;;;;;;;;;;;;;38.22;nan;102539.47;5012593;28;20311;-84
2023/09/07 10:53:12;;;;;;;;;;;;;;;38.34;nan;102531.53;5015692;28;19931;-82
2023/09/07 10:55:41;;;;;;;;;;;;;;;38.37;nan;102535.53;5014903;28;20325;-83
2023/09/07 10:58:08;;;;;;;;;;;;;;;38.39;nan;102533.13;5017683;28;19949;-83
2023/09/07 11:00:34;;;;;;;;;;;;;;;38.43;nan;102533.16;5019347;28;19956;-82
2023/09/07 11:02:59;;;;;;;;;;;;;;;38.50;nan;102533.94;5017386;28;19960;-82
2023/09/07 11:05:26;;;;;;;;;;;;;;;38.65;nan;102532.00;5008911;28;19963;-82
2023/09/07 11:07:52;;;;;;;;;;;;;;;38.77;nan;102527.97;5015599;28;20287;-84
2023/09/07 11:10:17;;;;;;;;;;;;;;;38.88;nan;102531.59;5014830;28;19925;-82
2023/09/07 11:12:42;;;;;;;;;;;;;;;38.98;nan;102526.00;5017566;28;19925;-84
2023/09/07 11:15:11;;;;;;;;;;;;;;;39.07;nan;102528.38;5026737;28;19925;-85
2023/09/07 11:17:38;;;;;;;;;;;;;;;39.10;nan;102521.97;5009923;28;19940;-84
2023/09/07 11:20:07;;;;;;;;;;;;;;;39.14;nan;102519.16;5013395;28;19945;-82
2023/09/07 11:22:32;;;;;;;;;;;;;;;39.23;nan;102511.16;5017865;28;19928;-81
2023/09/07 11:25:00;;;;;;;;;;;;;;;39.25;nan;102517.94;5014884;28;19921;-84
2023/09/07 11:27:29;;;;;;;;;;;;;;;39.20;nan;102518.38;5012813;28;19929;-84
2023/09/07 11:29:55;;;;;;;;;;;;;;;39.23;nan;102520.38;5019877;28;19921;-83
2023/09/07 11:32:21;;;;;;;;;;;;;;;39.29;nan;102510.31;5019470;28;20134;-84
2023/09/07 11:34:51;;;;;;;;;;;;;;;39.41;nan;102513.91;5018557;28;20011;-83
2023/09/07 11:37:22;;;;;;;;;;;;;;;39.53;nan;102508.69;5015763;28;19979;-82
2023/09/07 11:39:48;;;;;;;;;;;;;;;39.56;nan;102510.69;5017778;28;20341;-85
2023/09/07 11:42:13;;;;;;;;;;;;;;;39.56;nan;102515.50;5015366;28;19921;-81
2023/09/07 11:44:38;;;;;;;;;;;;;;;39.57;nan;102498.25;5015480;28;19930;-85
2023/09/07 11:47:04;;;;;;;;;;;;;;;39.58;nan;102501.84;5012230;28;19936;-84
2023/09/07 11:49:31;;;;;;;;;;;;;;;39.43;nan;102500.28;5017078;28;19928;-82
2023/09/07 11:51:57;;;;;;;;;;;;;;;39.44;nan;102507.47;5017528;28;19944;-83
2023/09/07 11:54:22;;;;;;;;;;;;;;;39.50;nan;102503.88;5017550;28;20408;-84
2023/09/07 11:56:48;;;;;;;;;;;;;;;39.64;nan;102502.22;5017805;28;19925;-83
2023/09/07 11:59:13;;;;;;;;;;;;;;;39.78;nan;102500.16;5020070;28;20373;-84
2023/09/07 12:01:39;;;;;;;;;;;;;;;39.89;nan;102500.13;5011681;28;20164;-84
2023/09/07 12:04:05;;;;;;;;;;;;;;;39.98;nan;102496.88;5015372;28;19917;-84
2023/09/07 12:06:31;;;;;;;;;;;;;;;40.09;nan;102497.63;5007197;28;19935;-82
2023/09/07 12:08:59;;;;;;;;;;;;;;;40.22;nan;102497.91;5014672;28;20356;-83
2023/09/07 12:11:25;;;;;;;;;;;;;;;40.22;nan;102501.56;5019841;28;19967;-84
2023/09/07 12:13:50;;;;;;;;;;;;;;;40.24;nan;102501.13;5018353;28;19921;-82
2023/09/07 12:16:16;;;;;;;;;;;;;;;40.25;nan;102494.31;5015982;28;19925;-82
2023/09/07 12:18:41;;;;;;;;;;;;;;;40.26;nan;102493.91;5015468;28;19921;-84
2023/09/07 12:21:08;;;;;;;;;;;;;;;40.30;nan;102485.44;5019201;28;19928;-84
2023/09/07 12:23:33;;;;;;;;;;;;;;;40.39;nan;102489.41;5012991;28;20036;-84
2023/09/07 12:25:58;;;;;;;;;;;;;;;40.49;nan;102484.91;5019411;28;19947;-83
2023/09/07 12:28:24;;;;;;;;;;;;;;;40.52;nan;102494.53;5010401;28;19964;-84
2023/09/07 12:30:49;;;;;;;;;;;;;;;40.54;nan;102480.84;5014168;28;19967;-84
2023/09/07 12:33:14;;;;;;;;;;;;;;;40.64;nan;102482.78;5012403;28;20017;-84
2023/09/07 12:35:39;;;;;;;;;;;;;;;40.71;nan;102480.69;5021568;28;19928;-84
2023/09/07 12:38:06;;;;;;;;;;;;;;;40.70;nan;102481.91;5011893;28;19921;-84
2023/09/07 12:40:32;;;;;;;;;;;;;;;40.70;nan;102481.91;5015568;28;19932;-83
2023/09/07 12:42:57;;;;;;;;;;;;;;;40.71;nan;102485.53;5013102;28;19921;-85
2023/09/07 12:45:22;;;;;;;;;;;;;;;40.67;nan;102474.31;5012335;28;19918;-85
2023/09/07 12:47:48;;;;;;;;;;;;;;;40.75;nan;102467.41;5016580;28;20000;-82
2023/09/07 12:50:13;;;;;;;;;;;;;;;40.75;nan;102472.22;5017256;28;19925;-84